createdAt,value
2022-11-12T00:00:16.953Z,16.50
2022-11-12T00:01:16.816Z,17.40
2022-11-12T00:02:16.847Z,17.80
2022-11-12T00:03:16.760Z,17.40
2022-11-12T00:04:16.733Z,15.00
2022-11-12T00:05:16.708Z,14.90
2022-11-12T00:06:16.680Z,14.70
2022-11-12T00:07:16.690Z,15.40
2022-11-12T00:08:16.636Z,18.90
2022-11-12T00:09:16.601Z,16.00
2022-11-12T00:10:16.579Z,16.40
2022-11-12T00:11:16.546Z,13.60
2022-11-12T00:12:16.521Z,15.80
2022-11-12T00:13:16.495Z,14.50
2022-11-12T00:14:16.466Z,16.20
2022-11-12T00:15:16.438Z,13.50
2022-11-12T00:16:16.525Z,14.40
2022-11-12T00:17:16.388Z,13.70
2022-11-12T00:18:16.361Z,13.20
2022-11-12T00:19:16.333Z,14.10
2022-11-12T00:20:16.307Z,13.70
2022-11-12T00:21:16.282Z,14.20
2022-11-12T00:22:16.256Z,18.20
2022-11-12T00:23:16.228Z,13.50
2022-11-12T00:24:16.203Z,13.60
2022-11-12T00:25:16.375Z,12.80
2022-11-12T00:26:16.148Z,13.90
2022-11-12T00:27:16.119Z,14.80
2022-11-12T00:28:16.094Z,13.70
2022-11-12T00:29:16.071Z,16.30
2022-11-12T00:30:16.042Z,14.40
2022-11-12T00:31:16.018Z,13.90
2022-11-12T00:32:16.101Z,15.60
2022-11-12T00:33:15.964Z,13.60
2022-11-12T00:34:15.936Z,15.00
2022-11-12T00:35:15.913Z,14.50
2022-11-12T00:36:15.883Z,17.00
2022-11-12T00:37:15.853Z,14.50
2022-11-12T00:38:15.858Z,13.50
2022-11-12T00:39:15.833Z,13.40
2022-11-12T00:40:15.778Z,14.70
2022-11-12T00:41:15.749Z,15.60
2022-11-12T00:42:15.723Z,15.70
2022-11-12T00:43:15.699Z,15.10
2022-11-12T00:44:15.670Z,13.80
2022-11-12T00:45:15.642Z,17.90
2022-11-12T00:46:15.619Z,14.00
2022-11-12T00:47:15.594Z,15.90
2022-11-12T00:48:15.677Z,12.70
2022-11-12T00:49:15.537Z,13.90
2022-11-12T00:50:15.515Z,12.50
2022-11-12T00:51:15.507Z,12.20
2022-11-12T00:52:15.463Z,12.30
2022-11-12T00:53:15.458Z,13.30
2022-11-12T00:54:15.405Z,14.20
2022-11-12T00:55:15.378Z,14.20
2022-11-12T00:56:15.354Z,13.70
2022-11-12T00:57:15.324Z,15.10
2022-11-12T00:58:15.301Z,12.10
2022-11-12T00:59:15.270Z,13.10
2022-11-12T01:00:15.247Z,13.10
2022-11-12T01:01:15.225Z,16.60
2022-11-12T01:02:15.191Z,14.00
2022-11-12T01:03:15.187Z,12.30
2022-11-12T01:04:15.259Z,12.00
2022-11-12T01:05:15.111Z,14.70
2022-11-12T01:06:15.083Z,14.60
2022-11-12T01:07:15.069Z,13.10
2022-11-12T01:08:15.032Z,12.30
2022-11-12T01:09:15.007Z,13.60
2022-11-12T01:10:14.977Z,12.70
2022-11-12T01:11:14.952Z,11.30
2022-11-12T01:12:14.926Z,12.20
2022-11-12T01:13:14.897Z,12.40
2022-11-12T01:14:14.875Z,14.20
2022-11-12T01:15:14.844Z,14.70
2022-11-12T01:16:14.816Z,15.30
2022-11-12T01:17:14.793Z,12.50
2022-11-12T01:18:14.765Z,14.00
2022-11-12T01:19:14.735Z,12.50
2022-11-12T01:20:14.832Z,13.30
2022-11-12T01:21:14.684Z,13.60
2022-11-12T01:22:14.658Z,11.40
2022-11-12T01:23:14.629Z,13.10
2022-11-12T01:24:14.606Z,11.40
2022-11-12T01:25:14.577Z,11.20
2022-11-12T01:26:14.552Z,12.50
2022-11-12T01:27:14.520Z,14.70
2022-11-12T01:28:14.497Z,13.10
2022-11-12T01:29:14.470Z,13.20
2022-11-12T01:30:14.445Z,14.30
2022-11-12T01:31:14.415Z,15.30
2022-11-12T01:32:14.392Z,13.60
2022-11-12T01:33:14.363Z,16.70
2022-11-12T01:34:14.339Z,12.10
2022-11-12T01:35:14.309Z,13.30
2022-11-12T01:36:14.399Z,12.30
2022-11-12T01:37:14.253Z,11.10
2022-11-12T01:38:14.265Z,14.20
2022-11-12T01:39:14.231Z,12.10
2022-11-12T01:40:14.178Z,11.50
2022-11-12T01:41:14.149Z,11.80
2022-11-12T01:42:14.124Z,13.50
2022-11-12T01:43:14.093Z,12.90
2022-11-12T01:44:14.072Z,11.30
2022-11-12T01:45:14.043Z,12.70
2022-11-12T01:46:14.016Z,12.70
2022-11-12T01:47:13.985Z,13.80
2022-11-12T01:48:13.959Z,12.40
2022-11-12T01:49:13.936Z,16.00
2022-11-12T01:50:13.910Z,13.70
2022-11-12T01:51:13.878Z,13.80
2022-11-12T01:52:13.974Z,18.50
2022-11-12T01:53:13.829Z,15.20
2022-11-12T01:54:13.801Z,14.40
2022-11-12T01:55:13.770Z,16.20
2022-11-12T01:56:13.745Z,14.30
2022-11-12T01:57:13.720Z,13.80
2022-11-12T01:58:13.698Z,13.70
2022-11-12T01:59:13.663Z,12.80
2022-11-12T02:00:13.639Z,13.70
2022-11-12T02:01:13.628Z,14.30
2022-11-12T02:02:13.586Z,14.50
2022-11-12T02:03:13.559Z,11.90
2022-11-12T02:04:13.533Z,11.30
2022-11-12T02:05:13.503Z,10.20
2022-11-12T02:06:13.478Z,11.90
2022-11-12T02:07:13.576Z,13.20
2022-11-12T02:08:13.534Z,10.20
2022-11-12T02:09:13.398Z,10.50
2022-11-12T02:10:13.371Z,9.70
2022-11-12T02:11:13.340Z,12.40
2022-11-12T02:12:13.320Z,9.10
2022-11-12T02:13:13.288Z,8.70
2022-11-12T02:14:13.267Z,10.50
2022-11-12T02:15:13.235Z,12.30
2022-11-12T02:16:13.208Z,8.20
2022-11-12T02:17:13.185Z,9.90
2022-11-12T02:18:13.155Z,10.20
2022-11-12T02:19:13.131Z,11.70
2022-11-12T02:20:13.103Z,14.10
2022-11-12T02:21:13.074Z,8.10
2022-11-12T02:22:13.045Z,13.60
2022-11-12T02:23:13.021Z,8.50
2022-11-12T02:24:13.106Z,8.20
2022-11-12T02:25:12.986Z,9.00
2022-11-12T02:26:12.938Z,10.80
2022-11-12T02:27:12.916Z,14.00
2022-11-12T02:28:12.887Z,12.20
2022-11-12T02:29:12.861Z,10.70
2022-11-12T02:30:12.831Z,9.40
2022-11-12T02:31:12.807Z,9.70
2022-11-12T02:32:12.778Z,10.80
2022-11-12T02:33:12.753Z,9.60
2022-11-12T02:34:12.728Z,9.10
2022-11-12T02:35:12.707Z,11.90
2022-11-12T02:36:12.674Z,8.90
2022-11-12T02:37:12.647Z,9.40
2022-11-12T02:38:12.622Z,10.20
2022-11-12T02:39:12.591Z,11.10
2022-11-12T02:40:12.681Z,8.90
2022-11-12T02:41:12.539Z,9.70
2022-11-12T02:42:12.508Z,10.50
2022-11-12T02:43:12.483Z,9.50
2022-11-12T02:44:12.457Z,8.60
2022-11-12T02:45:12.430Z,8.20
2022-11-12T02:46:12.402Z,9.70
2022-11-12T02:47:12.376Z,7.80
2022-11-12T02:48:17.964Z,10.00
2022-11-12T02:49:12.326Z,9.20
2022-11-12T02:50:12.292Z,9.30
2022-11-12T02:51:12.271Z,8.60
2022-11-12T02:52:12.240Z,8.10
2022-11-12T02:53:12.217Z,8.00
2022-11-12T02:54:12.187Z,8.30
2022-11-12T02:55:12.161Z,8.20
2022-11-12T02:56:12.249Z,8.40
2022-11-12T02:57:12.109Z,7.40
2022-11-12T02:58:12.078Z,7.00
2022-11-12T02:59:12.060Z,7.40
2022-11-12T03:00:12.026Z,7.70
2022-11-12T03:01:12.057Z,7.40
2022-11-12T03:02:11.972Z,8.70
2022-11-12T03:03:11.947Z,9.30
2022-11-12T03:04:11.918Z,9.90
2022-11-12T03:05:11.891Z,8.10
2022-11-12T03:06:11.864Z,12.10
2022-11-12T03:07:11.881Z,9.50
2022-11-12T03:08:11.809Z,8.10
2022-11-12T03:09:11.788Z,9.70
2022-11-12T03:10:11.755Z,7.20
2022-11-12T03:11:11.730Z,8.80
2022-11-12T03:12:11.815Z,12.90
2022-11-12T03:13:11.678Z,10.20
2022-11-12T03:14:11.651Z,8.20
2022-11-12T03:15:11.622Z,7.30
2022-11-12T03:16:11.594Z,9.00
2022-11-12T03:17:11.567Z,8.40
2022-11-12T03:18:11.538Z,8.40
2022-11-12T03:19:11.513Z,6.40
2022-11-12T03:20:11.489Z,9.90
2022-11-12T03:21:11.459Z,8.30
2022-11-12T03:22:11.429Z,8.40
2022-11-12T03:23:11.405Z,10.20
2022-11-12T03:24:11.375Z,9.50
2022-11-12T03:25:11.356Z,8.40
2022-11-12T03:26:11.323Z,7.70
2022-11-12T03:27:11.294Z,8.00
2022-11-12T03:28:11.374Z,9.20
2022-11-12T03:29:11.242Z,9.30
2022-11-12T03:30:11.213Z,8.20
2022-11-12T03:31:11.184Z,9.40
2022-11-12T03:32:11.157Z,8.40
2022-11-12T03:33:11.132Z,6.60
2022-11-12T03:34:11.107Z,6.90
2022-11-12T03:35:11.076Z,9.60
2022-11-12T03:36:11.048Z,8.00
2022-11-12T03:37:11.023Z,9.00
2022-11-12T03:38:10.999Z,10.50
2022-11-12T03:39:10.966Z,8.70
2022-11-12T03:40:10.939Z,8.10
2022-11-12T03:41:10.911Z,7.90
2022-11-12T03:42:10.886Z,9.60
2022-11-12T03:43:10.861Z,8.70
2022-11-12T03:44:10.945Z,8.40
2022-11-12T03:45:10.806Z,7.80
2022-11-12T03:46:10.776Z,9.10
2022-11-12T03:47:10.751Z,8.40
2022-11-12T03:48:10.722Z,6.80
2022-11-12T03:49:10.696Z,8.70
2022-11-12T03:50:10.673Z,10.40
2022-11-12T03:51:10.645Z,8.60
2022-11-12T03:52:10.611Z,10.90
2022-11-12T03:53:10.587Z,9.70
2022-11-12T03:54:10.558Z,8.20
2022-11-12T03:55:10.532Z,8.50
2022-11-12T03:56:10.502Z,6.90
2022-11-12T03:57:10.477Z,9.40
2022-11-12T03:58:10.454Z,8.40
2022-11-12T03:59:10.423Z,9.20
2022-11-12T04:00:10.514Z,7.10
2022-11-12T04:01:10.445Z,7.70
2022-11-12T04:02:10.339Z,7.30
2022-11-12T04:03:10.312Z,7.20
2022-11-12T04:04:10.283Z,9.30
2022-11-12T04:05:10.266Z,8.20
2022-11-12T04:06:10.247Z,7.30
2022-11-12T04:07:10.246Z,6.80
2022-11-12T04:08:10.177Z,8.90
2022-11-12T04:09:10.152Z,7.50
2022-11-12T04:10:10.124Z,9.00
2022-11-12T04:11:10.098Z,10.70
2022-11-12T04:12:10.071Z,9.60
2022-11-12T04:13:10.049Z,9.00
2022-11-12T04:14:10.016Z,8.00
2022-11-12T04:15:09.987Z,10.20
2022-11-12T04:16:10.073Z,7.60
2022-11-12T04:17:09.933Z,9.10
2022-11-12T04:18:09.903Z,9.30
2022-11-12T04:19:09.877Z,7.10
2022-11-12T04:20:09.848Z,9.80
2022-11-12T04:21:09.825Z,9.20
2022-11-12T04:22:09.808Z,8.90
2022-11-12T04:23:09.769Z,7.80
2022-11-12T04:24:09.743Z,9.20
2022-11-12T04:25:09.716Z,7.40
2022-11-12T04:26:09.687Z,9.10
2022-11-12T04:27:09.659Z,7.70
2022-11-12T04:28:09.631Z,9.20
2022-11-12T04:29:09.609Z,9.20
2022-11-12T04:30:09.579Z,7.30
2022-11-12T04:31:09.551Z,7.00
2022-11-12T04:32:09.632Z,10.50
2022-11-12T04:33:09.499Z,7.30
2022-11-12T04:34:09.468Z,10.00
2022-11-12T04:35:09.507Z,9.70
2022-11-12T04:36:09.415Z,10.50
2022-11-12T04:37:09.389Z,8.20
2022-11-12T04:38:09.359Z,8.40
2022-11-12T04:39:09.337Z,7.90
2022-11-12T04:40:09.305Z,7.50
2022-11-12T04:41:09.280Z,8.10
2022-11-12T04:42:09.250Z,8.60
2022-11-12T04:43:09.222Z,7.70
2022-11-12T04:44:09.196Z,7.90
2022-11-12T04:45:09.170Z,8.30
2022-11-12T04:46:09.139Z,6.80
2022-11-12T04:47:09.118Z,7.60
2022-11-12T04:48:09.195Z,10.50
2022-11-12T04:49:09.058Z,8.70
2022-11-12T04:50:09.032Z,10.10
2022-11-12T04:51:09.007Z,7.80
2022-11-12T04:52:08.977Z,7.70
2022-11-12T04:53:08.951Z,8.10
2022-11-12T04:54:08.922Z,6.50
2022-11-12T04:55:08.895Z,7.70
2022-11-12T04:56:08.865Z,9.30
2022-11-12T04:57:08.843Z,7.20
2022-11-12T04:58:08.814Z,7.90
2022-11-12T04:59:08.786Z,7.20
2022-11-12T05:00:08.757Z,6.40
2022-11-12T05:01:08.770Z,6.10
2022-11-12T05:02:08.702Z,6.50
2022-11-12T05:03:08.673Z,8.00
2022-11-12T05:04:08.767Z,9.10
2022-11-12T05:05:08.627Z,9.30
2022-11-12T05:06:08.592Z,6.80
2022-11-12T05:07:08.619Z,9.10
2022-11-12T05:08:08.537Z,8.50
2022-11-12T05:09:08.511Z,8.70
2022-11-12T05:10:08.483Z,8.20
2022-11-12T05:11:12.673Z,8.70
2022-11-12T05:12:08.430Z,7.40
2022-11-12T05:13:08.410Z,7.20
2022-11-12T05:14:08.373Z,9.70
2022-11-12T05:15:08.350Z,7.10
2022-11-12T05:16:08.317Z,8.00
2022-11-12T05:17:08.292Z,8.80
2022-11-12T05:18:08.268Z,8.30
2022-11-12T05:19:08.236Z,7.00
2022-11-12T05:20:08.326Z,6.30
2022-11-12T05:21:08.181Z,7.80
2022-11-12T05:22:17.362Z,8.60
2022-11-12T05:23:08.230Z,8.20
2022-11-12T05:24:08.420Z,9.40
2022-11-12T05:25:08.071Z,10.20
2022-11-12T05:26:08.041Z,7.40
2022-11-12T05:27:08.028Z,8.90
2022-11-12T05:28:07.988Z,9.00
2022-11-12T05:29:09.059Z,8.90
2022-11-12T05:30:07.960Z,7.40
2022-11-12T05:31:07.905Z,9.60
2022-11-12T05:32:07.876Z,9.00
2022-11-12T05:33:07.853Z,7.90
2022-11-12T05:34:07.822Z,7.50
2022-11-12T05:35:07.794Z,8.90
2022-11-12T05:36:07.875Z,7.00
2022-11-12T05:37:07.740Z,11.30
2022-11-12T05:38:07.711Z,7.50
2022-11-12T05:39:07.689Z,9.60
2022-11-12T05:40:07.658Z,8.20
2022-11-12T05:41:07.633Z,6.60
2022-11-12T05:42:14.808Z,8.70
2022-11-12T05:43:07.573Z,10.10
2022-11-12T05:44:07.551Z,11.40
2022-11-12T05:45:07.521Z,8.30
2022-11-12T05:46:07.490Z,8.50
2022-11-12T05:47:07.470Z,12.20
2022-11-12T05:48:07.435Z,8.10
2022-11-12T05:49:07.409Z,9.20
2022-11-12T05:50:07.383Z,7.80
2022-11-12T05:51:12.858Z,8.70
2022-11-12T05:52:07.441Z,8.60
2022-11-12T05:53:07.299Z,11.70
2022-11-12T05:54:07.275Z,9.20
2022-11-12T05:55:07.245Z,9.00
2022-11-12T05:56:07.215Z,8.40
2022-11-12T05:57:07.190Z,7.70
2022-11-12T05:58:07.167Z,11.20
2022-11-12T05:59:07.134Z,8.20
2022-11-12T06:00:07.104Z,8.00
2022-11-12T06:01:07.083Z,9.90
2022-11-12T06:02:07.114Z,10.80
2022-11-12T06:03:07.024Z,8.50
2022-11-12T06:04:06.993Z,8.70
2022-11-12T06:05:06.969Z,9.30
2022-11-12T06:06:06.939Z,8.50
2022-11-12T06:07:06.934Z,10.80
2022-11-12T06:08:07.006Z,10.70
2022-11-12T06:09:06.859Z,9.80
2022-11-12T06:10:06.830Z,9.90
2022-11-12T06:11:06.802Z,8.30
2022-11-12T06:12:06.792Z,9.20
2022-11-12T06:13:06.746Z,9.10
2022-11-12T06:14:06.722Z,8.90
2022-11-12T06:15:06.696Z,10.70
2022-11-12T06:16:06.662Z,8.80
2022-11-12T06:17:06.641Z,9.50
2022-11-12T06:18:06.610Z,8.90
2022-11-12T06:19:06.589Z,9.30
2022-11-12T06:20:06.551Z,8.80
2022-11-12T06:21:06.525Z,9.20
2022-11-12T06:22:06.497Z,10.70
2022-11-12T06:23:06.469Z,9.30
2022-11-12T06:24:06.558Z,11.10
2022-11-12T06:25:06.418Z,9.20
2022-11-12T06:26:06.385Z,8.00
2022-11-12T06:27:06.360Z,11.00
2022-11-12T06:28:06.335Z,11.00
2022-11-12T06:29:06.304Z,9.50
2022-11-12T06:30:06.277Z,10.70
2022-11-12T06:31:06.259Z,9.80
2022-11-12T06:32:06.221Z,9.60
2022-11-12T06:33:06.193Z,9.10
2022-11-12T06:34:06.167Z,10.60
2022-11-12T06:35:06.137Z,11.40
2022-11-12T06:36:06.110Z,11.20
2022-11-12T06:37:06.084Z,8.50
2022-11-12T06:38:06.056Z,9.80
2022-11-12T06:39:06.026Z,12.90
2022-11-12T06:40:06.116Z,10.30
2022-11-12T06:41:05.972Z,9.30
2022-11-12T06:42:05.946Z,11.80
2022-11-12T06:43:05.919Z,16.90
2022-11-12T06:44:05.892Z,19.00
2022-11-12T06:45:05.859Z,21.50
2022-11-12T06:46:05.838Z,25.00
2022-11-12T06:47:05.805Z,14.70
2022-11-12T06:48:05.780Z,21.80
2022-11-12T06:49:05.751Z,20.70
2022-11-12T06:50:05.724Z,12.50
2022-11-12T06:51:05.695Z,13.60
2022-11-12T06:52:05.669Z,13.40
2022-11-12T06:53:05.640Z,11.00
2022-11-12T06:54:05.613Z,10.60
2022-11-12T06:55:05.587Z,12.50
2022-11-12T06:56:05.678Z,9.60
2022-11-12T06:57:05.528Z,9.20
2022-11-12T06:58:05.501Z,14.50
2022-11-12T06:59:05.473Z,13.50
2022-11-12T07:00:05.565Z,11.90
2022-11-12T07:01:10.063Z,10.70
2022-11-12T07:02:05.436Z,9.40
2022-11-12T07:03:05.369Z,13.90
2022-11-12T07:04:05.336Z,10.80
2022-11-12T07:05:05.308Z,10.90
2022-11-12T07:06:05.279Z,14.50
2022-11-12T07:07:09.437Z,9.60
2022-11-12T07:08:05.224Z,9.00
2022-11-12T07:09:05.195Z,11.30
2022-11-12T07:10:05.231Z,9.60
2022-11-12T07:11:05.138Z,11.60
2022-11-12T07:12:05.221Z,10.80
2022-11-12T07:13:05.083Z,12.30
2022-11-12T07:14:05.059Z,10.70
2022-11-12T07:15:05.031Z,12.10
2022-11-12T07:16:05.004Z,10.90
2022-11-12T07:17:04.969Z,13.60
2022-11-12T07:18:04.946Z,11.50
2022-11-12T07:19:04.918Z,11.60
2022-11-12T07:20:04.889Z,12.50
2022-11-12T07:21:04.858Z,12.40
2022-11-12T07:22:04.834Z,17.80
2022-11-12T07:23:04.806Z,16.90
2022-11-12T07:24:04.779Z,21.50
2022-11-12T07:25:04.749Z,23.50
2022-11-12T07:26:04.723Z,23.10
2022-11-12T07:27:04.693Z,21.90
2022-11-12T07:28:04.789Z,24.40
2022-11-12T07:29:04.637Z,42.30
2022-11-12T07:30:04.610Z,59.30
2022-11-12T07:31:04.581Z,38.50
2022-11-12T07:32:04.554Z,23.60
2022-11-12T07:33:04.524Z,20.40
2022-11-12T07:34:04.499Z,15.10
2022-11-12T07:35:04.467Z,14.00
2022-11-12T07:36:04.441Z,12.10
2022-11-12T07:37:04.412Z,12.70
2022-11-12T07:38:04.389Z,12.00
2022-11-12T07:39:04.361Z,11.20
2022-11-12T07:40:04.379Z,11.50
2022-11-12T07:41:04.302Z,10.20
2022-11-12T07:42:04.278Z,13.50
2022-11-12T07:43:04.244Z,11.40
2022-11-12T07:44:04.331Z,12.00
2022-11-12T07:45:04.191Z,12.60
2022-11-12T07:46:10.119Z,10.60
2022-11-12T07:47:04.135Z,12.50
2022-11-12T07:48:04.108Z,12.20
2022-11-12T07:49:04.083Z,16.30
2022-11-12T07:50:04.055Z,16.30
2022-11-12T07:51:04.022Z,22.00
2022-11-12T07:52:04.001Z,22.70
2022-11-12T07:53:03.970Z,21.10
2022-11-12T07:54:03.946Z,15.50
2022-11-12T07:55:03.911Z,17.20
2022-11-12T07:56:03.888Z,17.10
2022-11-12T07:57:03.858Z,16.20
2022-11-12T07:58:03.836Z,16.90
2022-11-12T07:59:03.802Z,19.60
2022-11-12T08:00:03.888Z,17.20
2022-11-12T08:01:03.749Z,16.10
2022-11-12T08:02:03.723Z,11.30
2022-11-12T08:03:03.690Z,10.90
2022-11-12T08:04:03.664Z,10.60
2022-11-12T08:05:06.184Z,11.00
2022-11-12T08:06:03.635Z,12.20
2022-11-12T08:07:03.677Z,16.80
2022-11-12T08:08:03.707Z,13.40
2022-11-12T08:09:03.528Z,13.80
2022-11-12T08:10:03.499Z,15.10
2022-11-12T08:11:03.470Z,13.20
2022-11-12T08:12:03.445Z,11.10
2022-11-12T08:13:03.415Z,13.70
2022-11-12T08:14:03.390Z,12.60
2022-11-12T08:15:03.393Z,11.90
2022-11-12T08:16:03.450Z,13.20
2022-11-12T08:17:03.308Z,16.50
2022-11-12T08:18:03.280Z,12.80
2022-11-12T08:19:03.249Z,14.60
2022-11-12T08:20:03.229Z,11.70
2022-11-12T08:21:03.197Z,11.20
2022-11-12T08:22:03.170Z,10.90
2022-11-12T08:23:03.140Z,15.50
2022-11-12T08:24:03.115Z,12.60
2022-11-12T08:25:03.087Z,11.30
2022-11-12T08:26:03.063Z,14.40
2022-11-12T08:27:03.033Z,12.30
2022-11-12T08:28:03.004Z,13.10
2022-11-12T08:29:08.032Z,11.40
2022-11-12T08:30:02.953Z,14.70
2022-11-12T08:31:02.922Z,12.30
2022-11-12T08:32:03.011Z,15.60
2022-11-12T08:33:02.866Z,15.10
2022-11-12T08:34:02.844Z,14.30
2022-11-12T08:35:02.813Z,13.40
2022-11-12T08:36:02.790Z,14.70
2022-11-12T08:37:02.760Z,13.20
2022-11-12T08:38:02.732Z,13.20
2022-11-12T08:39:02.705Z,14.70
2022-11-12T08:40:02.680Z,21.10
2022-11-12T08:41:02.650Z,18.20
2022-11-12T08:42:02.629Z,17.60
2022-11-12T08:43:02.595Z,12.30
2022-11-12T08:44:08.086Z,14.60
2022-11-12T08:45:02.541Z,13.90
2022-11-12T08:46:02.523Z,13.00
2022-11-12T08:47:02.486Z,14.20
2022-11-12T08:48:02.582Z,16.20
2022-11-12T08:49:02.433Z,13.20
2022-11-12T08:50:02.408Z,15.20
2022-11-12T08:51:02.381Z,14.80
2022-11-12T08:52:02.352Z,18.30
2022-11-12T08:53:02.323Z,18.50
2022-11-12T08:54:02.299Z,15.50
2022-11-12T08:55:02.270Z,14.20
2022-11-12T08:56:02.245Z,12.50
2022-11-12T08:57:02.222Z,14.60
2022-11-12T08:58:02.192Z,11.80
2022-11-12T08:59:07.079Z,13.90
2022-11-12T09:00:02.136Z,13.00
2022-11-12T09:01:02.107Z,14.00
2022-11-12T09:02:02.110Z,13.80
2022-11-12T09:03:02.055Z,15.20
2022-11-12T09:04:02.144Z,12.50
2022-11-12T09:05:01.999Z,13.00
2022-11-12T09:06:01.976Z,13.60
2022-11-12T09:07:01.985Z,12.70
2022-11-12T09:08:02.002Z,11.70
2022-11-12T09:09:01.900Z,17.60
2022-11-12T09:10:01.868Z,13.10
2022-11-12T09:11:01.841Z,17.90
2022-11-12T09:12:08.192Z,14.20
2022-11-12T09:13:01.784Z,14.40
2022-11-12T09:14:01.862Z,13.50
2022-11-12T09:15:35.671Z,13.10
2022-11-12T09:16:01.710Z,12.90
2022-11-12T09:17:01.680Z,14.80
2022-11-12T09:18:01.656Z,11.10
2022-11-12T09:19:01.625Z,12.00
2022-11-12T09:20:01.720Z,13.50
2022-11-12T09:21:01.574Z,13.40
2022-11-12T09:22:01.554Z,13.00
2022-11-12T09:23:01.523Z,10.50
2022-11-12T09:24:01.499Z,13.60
2022-11-12T09:25:01.470Z,13.00
2022-11-12T09:26:01.446Z,12.10
2022-11-12T09:27:01.418Z,11.30
2022-11-12T09:28:01.391Z,10.30
2022-11-12T09:29:01.369Z,11.70
2022-11-12T09:30:01.344Z,12.70
2022-11-12T09:31:01.317Z,13.60
2022-11-12T09:32:01.291Z,12.00
2022-11-12T09:33:01.264Z,13.80
2022-11-12T09:34:01.241Z,10.60
2022-11-12T09:35:01.210Z,11.10
2022-11-12T09:36:01.303Z,13.70
2022-11-12T09:37:01.163Z,11.30
2022-11-12T09:38:01.142Z,12.50
2022-11-12T09:39:01.112Z,13.10
2022-11-12T09:40:01.089Z,12.00
2022-11-12T09:41:01.062Z,10.60
2022-11-12T09:42:02.244Z,9.80
2022-11-12T09:43:01.013Z,11.10
2022-11-12T09:44:01.003Z,13.60
2022-11-12T09:45:00.972Z,12.80
2022-11-12T09:46:22.007Z,11.80
2022-11-12T09:47:00.918Z,12.10
2022-11-12T09:48:00.894Z,10.80
2022-11-12T09:49:00.868Z,12.00
2022-11-12T09:50:00.849Z,12.70
2022-11-12T09:51:00.819Z,11.80
2022-11-12T09:52:00.911Z,13.70
2022-11-12T09:53:00.772Z,12.20
2022-11-12T09:54:00.750Z,11.60
2022-11-12T09:55:00.728Z,13.00
2022-11-12T09:56:00.699Z,11.20
2022-11-12T09:57:00.674Z,11.40
2022-11-12T09:58:00.655Z,13.50
2022-11-12T09:59:00.626Z,10.90
2022-11-12T10:00:00.606Z,11.30
2022-11-12T10:01:00.580Z,14.10
2022-11-12T10:02:00.629Z,13.20
2022-11-12T10:03:00.534Z,13.20
2022-11-12T10:04:00.509Z,12.20
2022-11-12T10:05:00.488Z,11.60
2022-11-12T10:06:00.466Z,15.70
2022-11-12T10:07:00.473Z,12.60
2022-11-12T10:08:00.529Z,14.00
2022-11-12T10:09:00.396Z,11.50
2022-11-12T10:10:00.373Z,10.40
2022-11-12T10:11:00.352Z,8.80
2022-11-12T10:12:04.258Z,10.30
2022-11-12T10:13:00.304Z,8.90
2022-11-12T10:14:00.292Z,9.30
2022-11-12T10:15:00.264Z,10.70
2022-11-12T10:16:00.238Z,11.10
2022-11-12T10:17:00.214Z,11.90
2022-11-12T10:18:00.196Z,15.60
2022-11-12T10:19:00.168Z,12.50
2022-11-12T10:20:00.168Z,10.80
2022-11-12T10:21:00.128Z,11.90
2022-11-12T10:22:00.106Z,16.40
2022-11-12T10:23:00.101Z,11.20
2022-11-12T10:24:00.171Z,11.70
2022-11-12T10:25:00.038Z,10.70
2022-11-12T10:26:00.015Z,11.30
2022-11-12T10:26:59.994Z,10.10
2022-11-12T10:27:59.975Z,12.20
2022-11-12T10:28:59.949Z,13.80
2022-11-12T10:29:59.927Z,10.10
2022-11-12T10:30:59.907Z,14.30
2022-11-12T10:31:59.883Z,11.90
2022-11-12T10:32:59.862Z,11.80
2022-11-12T10:33:59.843Z,11.60
2022-11-12T10:34:59.818Z,13.40
2022-11-12T10:35:59.797Z,13.00
2022-11-12T10:36:59.775Z,13.50
2022-11-12T10:37:59.755Z,12.90
2022-11-12T10:38:59.731Z,10.60
2022-11-12T10:39:59.823Z,11.30
2022-11-12T10:40:59.694Z,13.30
2022-11-12T10:41:59.674Z,12.90
2022-11-12T10:42:59.648Z,11.10
2022-11-12T10:43:59.628Z,10.80
2022-11-12T10:44:59.609Z,12.40
2022-11-12T10:45:59.590Z,12.30
2022-11-12T10:46:59.566Z,11.80
2022-11-12T10:47:59.543Z,11.50
2022-11-12T10:48:59.525Z,12.80
2022-11-12T10:49:59.504Z,11.90
2022-11-12T10:50:59.483Z,11.30
2022-11-12T10:51:59.469Z,10.80
2022-11-12T10:52:59.443Z,12.40
2022-11-12T10:53:59.422Z,12.30
2022-11-12T10:54:59.403Z,12.50
2022-11-12T10:55:59.494Z,10.60
2022-11-12T10:56:59.361Z,10.20
2022-11-12T10:57:59.338Z,11.10
2022-11-12T10:58:59.319Z,10.10
2022-11-12T10:59:59.296Z,12.30
2022-11-12T11:00:59.281Z,9.40
2022-11-12T11:01:59.351Z,9.60
2022-11-12T11:02:59.239Z,9.30
2022-11-12T11:03:59.216Z,10.70
2022-11-12T11:04:59.196Z,9.30
2022-11-12T11:05:59.175Z,9.70
2022-11-12T11:06:59.204Z,8.00
2022-11-12T11:07:59.139Z,9.60
2022-11-12T11:08:59.120Z,7.50
2022-11-12T11:09:59.092Z,10.00
2022-11-12T11:10:59.072Z,8.80
2022-11-12T11:11:59.170Z,11.10
2022-11-12T11:12:59.030Z,10.20
2022-11-12T11:13:59.008Z,9.40
2022-11-12T11:14:59.190Z,10.50
2022-11-12T11:15:58.973Z,9.70
2022-11-12T11:16:58.946Z,9.30
2022-11-12T11:17:58.926Z,9.80
2022-11-12T11:18:58.905Z,9.10
2022-11-12T11:19:58.881Z,10.90
2022-11-12T11:20:58.862Z,9.70
2022-11-12T11:21:58.842Z,12.40
2022-11-12T11:22:58.818Z,8.40
2022-11-12T11:23:58.796Z,9.60
2022-11-12T11:24:58.777Z,10.30
2022-11-12T11:25:58.756Z,8.20
2022-11-12T11:26:58.732Z,12.40
2022-11-12T11:27:58.820Z,9.10
2022-11-12T11:28:58.689Z,8.60
2022-11-12T11:29:58.669Z,7.70
2022-11-12T11:30:58.645Z,13.80
2022-11-12T11:31:58.953Z,6.40
2022-11-12T11:32:58.601Z,7.90
2022-11-12T11:33:58.580Z,7.20
2022-11-12T11:34:58.557Z,9.00
2022-11-12T11:35:58.535Z,8.00
2022-11-12T11:36:58.513Z,7.50
2022-11-12T11:37:58.819Z,7.80
2022-11-12T11:38:58.470Z,7.20
2022-11-12T11:39:58.447Z,8.40
2022-11-12T11:40:58.427Z,7.00
2022-11-12T11:41:58.402Z,8.70
2022-11-12T11:42:58.379Z,6.50
2022-11-12T11:43:58.488Z,9.20
2022-11-12T11:44:58.337Z,6.90
2022-11-12T11:45:58.314Z,7.30
2022-11-12T11:46:58.292Z,8.50
2022-11-12T11:48:01.805Z,8.60
2022-11-12T11:48:58.250Z,8.60
2022-11-12T11:49:58.228Z,9.00
2022-11-12T11:50:58.202Z,7.80
2022-11-12T11:51:58.183Z,6.20
2022-11-12T11:52:58.159Z,7.40
2022-11-12T11:53:58.135Z,8.60
2022-11-12T11:54:58.116Z,7.90
2022-11-12T11:55:58.091Z,7.80
2022-11-12T11:56:58.071Z,7.60
2022-11-12T11:57:58.047Z,6.80
2022-11-12T11:58:58.024Z,6.00
2022-11-12T11:59:58.110Z,7.10
2022-11-12T12:00:57.982Z,8.10
2022-11-12T12:01:57.970Z,5.90
2022-11-12T12:02:57.939Z,8.40
2022-11-12T12:03:57.978Z,8.80
2022-11-12T12:04:57.892Z,5.10
2022-11-12T12:05:57.873Z,6.60
2022-11-12T12:06:57.892Z,8.30
2022-11-12T12:07:57.825Z,6.80
2022-11-12T12:08:57.804Z,7.20
2022-11-12T12:09:57.779Z,6.40
2022-11-12T12:11:13.031Z,7.00
2022-11-12T12:11:57.734Z,6.00
2022-11-12T12:12:57.715Z,6.00
2022-11-12T12:13:57.689Z,7.00
2022-11-12T12:14:57.667Z,7.30
2022-11-12T12:15:57.764Z,8.70
2022-11-12T12:16:57.625Z,8.10
2022-11-12T12:17:57.601Z,7.00
2022-11-12T12:18:57.584Z,6.90
2022-11-12T12:19:57.556Z,5.70
2022-11-12T12:20:57.536Z,5.60
2022-11-12T12:21:57.510Z,9.00
2022-11-12T12:22:57.491Z,10.50
2022-11-12T12:23:57.464Z,5.10
2022-11-12T12:24:57.446Z,5.20
2022-11-12T12:26:00.240Z,8.70
2022-11-12T12:26:57.401Z,6.60
2022-11-12T12:27:57.377Z,7.00
2022-11-12T12:28:57.354Z,7.70
2022-11-12T12:29:57.334Z,10.90
2022-11-12T12:30:57.309Z,7.70
2022-11-12T12:31:57.398Z,5.50
2022-11-12T12:32:57.265Z,6.60
2022-11-12T12:33:57.245Z,7.90
2022-11-12T12:34:57.219Z,7.10
2022-11-12T12:35:57.197Z,10.10
2022-11-12T12:36:57.176Z,7.70
2022-11-12T12:37:57.153Z,5.90
2022-11-12T12:38:57.132Z,8.60
2022-11-12T12:39:57.107Z,7.90
2022-11-12T12:40:57.088Z,6.70
2022-11-12T12:41:57.063Z,7.10
2022-11-12T12:42:57.043Z,7.60
2022-11-12T12:43:57.017Z,8.20
2022-11-12T12:44:56.999Z,7.80
2022-11-12T12:45:56.975Z,8.20
2022-11-12T12:46:56.954Z,8.70
2022-11-12T12:47:57.037Z,9.10
2022-11-12T12:48:56.911Z,8.50
2022-11-12T12:49:56.883Z,8.90
2022-11-12T12:50:56.865Z,7.50
2022-11-12T12:51:56.844Z,8.10
2022-11-12T12:52:56.819Z,6.60
2022-11-12T12:53:56.794Z,8.00
2022-11-12T12:54:56.775Z,6.30
2022-11-12T12:55:56.752Z,8.40
2022-11-12T12:56:56.729Z,7.80
2022-11-12T12:57:56.707Z,6.30
2022-11-12T12:58:56.684Z,7.90
2022-11-12T12:59:56.665Z,6.40
2022-11-12T13:00:56.687Z,8.40
2022-11-12T13:01:56.618Z,9.10
2022-11-12T13:02:56.594Z,8.80